СИЛА РОССИИ. Форум сайта «Отвага» (www.otvaga2004.ru)

Информация о пользователе

Привет, Гость! Войдите или зарегистрируйтесь.


Вы здесь » СИЛА РОССИИ. Форум сайта «Отвага» (www.otvaga2004.ru) » Вооружение сухопутных войск


Вооружение сухопутных войск

Тем 31 страница 60 из 201

Тема Ответов Просмотров Последнее сообщение
249 36955 2021-01-05 14:54:46  Oleg7700
32 Камуфляж-2  KORVIN  [ 1 2 3  12 ]
338 78267 2020-12-23 11:53:55  Франсуа Бертран
133 24214 2020-12-19 14:05:13  Wotan
1000 42674 2020-12-14 09:51:38  Wind
35 Средства связи  Lans  [ 1 2 3 4 5 ]
148 22201 2020-12-10 08:17:31  maxuha
87 31843 2020-12-04 17:29:49  Механический кот
67 5577 2020-11-30 18:35:10  ДимитриUS
64 15689 2020-11-23 23:01:26  Франсуа Бертран
152 28920 2020-11-17 23:16:31  DAK
40 Прицелы-2  KORVIN  [ 1 2 3  24 ]
696 115052 2020-11-17 13:44:35  prot
41 Закрыта Противотанковые средства 6  finnbogi  [ 1 2 3  41 ]
1224 82035 2020-11-02 23:25:40  Retiv
42 Закрыта Пулеметы-8  KORVIN  [ 1 2 3  38 ]
1133 124411 2020-10-30 21:22:50  Мак Сим
43 Закрыта Вооруженные силы: общие вопросы 4  Realist  [ 1 2 3  38 ]
1130 76666 2020-10-25 09:26:31  отрохов
44 Закрыта Средства ПВО-9  ДимитриUS  [ 1 2 3  40 ]
1190 121020 2020-10-22 21:29:22  Blitz.
1494 144117 2020-10-19 17:10:14  Wind
46 Фортификация  Lans  [ 1 2 3  6 ]
154 21219 2020-10-16 17:35:32  Механический кот
47 Закрыта Средства ПВО - 8  kinetic  [ 1 2 3  34 ]
1009 110504 2020-09-25 21:59:29  Oleg7700
48 РЛС разведки  Astax  [ 1 2 ]
50 12334 2020-08-29 11:54:15  Василий_Пупкин_123
49 РЭБ  Lans  [ 1 2 3  11 ]
311 50023 2020-08-21 06:08:04  Fencer
50 Оружейные и околооружейные новости  Хорт мохнатый  [ 1 2 3  17 ]
503 61824 2020-08-09 19:41:11  Viktory
51 вопрос про КПВТ  Нихтферштейн
7 1238 2020-06-13 21:26:23  Blitz.
20 4061 2020-05-17 10:47:45  Astax
53 Околовоенные новости  Zaklepkin  [ 1 2 3  11 ]
305 31555 2020-04-23 17:57:51  Viktory
54 Ручные гранаты  Lans  [ 1 2 3  9 ]
246 32877 2020-01-06 13:52:36  leonard61
999 90942 2019-10-23 17:29:42  __Memento_mori__
999 11883 2019-10-06 20:55:16  sasa
999 10587 2019-09-18 21:47:26  sasa
58 Пистолеты-3  KORVIN  [ 1 2 3  34 ]
999 61383 2019-09-13 01:22:27  KORVIN
1 989 2019-09-10 17:39:56  scout
60 Какими должны быть ВДВ? - 4  Сергей-1982  [ 1 2 3  34 ]
999 10301 2019-09-04 15:47:16  8569

Вы здесь » СИЛА РОССИИ. Форум сайта «Отвага» (www.otvaga2004.ru) » Вооружение сухопутных войск